x

Nantucket 54nm Southeast Of Nantucket (44008) Wave Buoy

3:50pm - Tue 24th May 2016 All times are EDT. -4 hours from GMT.

  • Sig Wave height 4.9ft
  • Swell Direction
  • Peak Period 9s
  • Average Period 7s
  • Wind
    7mph
  • Sea Temp 52°f
  • Air Temp 54°f
  • Sea Pressure 1013.4mb
  • Nantucket 54nm Southeast Of Nantucket
  • Nantucket 54nm Southeast Of Nantucket

More Historic Weather Station data

Upgrade to MSW Pro to gain access to the past 30 days of data for over 8000 Wavebouys and Weather Stations around the globe.

Join Pro

Comparision Forecast

View Surf forecast
   
Tue 05/24 3:50pm 5ft 9s 7s 7
mph
1013.4mb 52f 54f
2:50pm 5ft 8s 7s 7 9 mph 1013.5mb 52f 54f
1:50pm 5ft 9s 6s 7 9 mph 1013.3mb 52f 54f
12:50pm 5ft 8s 6s 9
mph
1013.4mb 52f 54f
11:50am 5ft 8s 6s 7 9 mph 1013mb 51f 53f
10:50am 5ft 8s 6s 9 11 mph 1012.6mb 50f 53f
9:50am 5ft 8s 7s 9 11 mph 1012.1mb 50f 53f
8:50am 5ft 8s 6s 11
mph
1012mb 50f 53f
7:50am 5ft 9s 6s 11 13 mph 1011.7mb 49f 54f
6:50am 5.5ft 8s 6s 13
mph
1011.1mb 49f 55f
5:50am 5.5ft 8s 6s 13 16 mph 1010.4mb 49f 56f
4:50am 6ft 9s 6s 16 18 mph 1009.6mb 49f 56f
3:50am 5.5ft 9s 7s 11 13 mph 1009.4mb 49f 53f
2:50am 5.5ft 8s 7s 13 16 mph 1009.3mb 49f 51f
1:50am 5ft 9s 6s 16 18 mph 1009.5mb 49f 51f
12:50am 5ft 9s 6s 16 18 mph 1010mb 50f 51f
Mon 05/23 11:50pm 4.5ft 9s 6s 16 18 mph 1010.2mb 50f 51f
10:50pm 4.5ft 8s 6s 16 18 mph 1010.3mb 50f 51f
9:50pm 4.5ft 9s 6s 16 18 mph 1010.4mb 49f 51f
8:50pm 5ft 9s 7s 16 18 mph 1010.8mb 50f 51f
7:50pm 5ft 9s 7s 16 18 mph 1011.1mb 51f 51f
6:50pm 5ft 9s 7s 13 16 mph 1011.1mb 51f 51f
5:50pm 5ft 9s 7s 11 13 mph 1010.8mb 51f 52f
4:50pm 5ft 10s 7s 11
mph
1011.4mb 50f 52f
3:50pm 4.5ft 8s 7s 7 9 mph 1011.6mb 52f 52f
2:50pm 4.5ft 10s 7s 4 9 mph 1011.9mb 51f 52f
1:50pm 4.5ft 10s 7s 4
mph
1012.2mb 51f 51f
12:50pm 5ft 8s 8s 7
mph
1012mb 50f 51f
11:50am 5ft 8s 7s 9
mph
1011.9mb 49f 51f
10:50am 5ft 8s 7s 9 11 mph 1011.9mb 49f 51f
9:50am 5.5ft 10s 7s 9 11 mph 1012.2mb 49f 51f
8:50am 6ft 8s 7s 11 13 mph 1011.8mb 49f 50f
7:50am 7ft 8s 7s 11 13 mph 1011.6mb 48f 50f
6:50am 7ft 8s  -  9 11 mph 1012.3mb 48f 49f
5:50am 7ft 10s 7s 16
mph
1011.1mb 47f 49f
4:50am 8.5ft 10s 7s 13 16 mph 1010.7mb 48f 49f
3:50am 7ft 8s 7s 9 11 mph 1010.8mb 49f 49f
2:50am 7.5ft 8s 7s 11 13 mph 1010.4mb 49f 49f
1:50am 7ft 8s 7s 11 13 mph 1010.7mb 49f 49f
12:50am 8ft 9s 8s 9 11 mph 1011.2mb 49f 49f
Sun 05/22 11:50pm 7ft 8s 7s 9 11 mph 1011mb 49f 49f
10:50pm 8ft 8s 7s 9 13 mph 1010.9mb 49f 49f
9:50pm 7.5ft 8s 7s 11 13 mph 1011mb 49f 49f
8:50pm 9ft 10s 7s 13 16 mph 1009.7mb 49f 49f
7:50pm 8ft 8s 7s 13 18 mph 1008.9mb 49f 49f
6:50pm 9ft 8s 7s 13 16 mph 1008.7mb 49f 49f
5:50pm 10ft 8s 7s 18 22 mph 1007.9mb 49f 50f
4:50pm 10ft 8s 7s 16 20 mph 1007.4mb 49f 50f
3:50pm 11ft 8s 7s 18 22 mph 1006.8mb 49f 50f
2:50pm 10.5ft 8s 7s 18 22 mph 1006.2mb 49f 50f
1:50pm 11ft 10s 7s 16 18 mph 1005.9mb 49f 50f
12:50pm 11ft 8s 7s 16 20 mph 1004.7mb 49f 51f
11:50am 11.5ft 10s 7s 20 25 mph 1004.1mb 49f 51f
10:50am 11.5ft 10s 7s 27 34 mph 1002.9mb 49f 53f
9:50am 12.5ft 11s 7s 34 40 mph 1001.4mb 49f 52f
8:50am 11ft 8s 7s 31 38 mph 1001.9mb 48f 52f
7:50am 8ft 9s 6s 34 43 mph 1001.1mb 50f 53f
6:50am 6ft 4s 5s 36 40 mph 1000.5mb 50f 53f
5:50am 5ft 7s 4s 34 40 mph 1001.6mb 51f 53f
4:50am 4.5ft 6s 4s 27 34 mph 1003.9mb 51f 53f
3:50am 3.5ft 8s 5s 25 29 mph 1006.1mb 51f 53f
2:50am 3.5ft 5s 5s 25 29 mph 1007.4mb 51f 54f
1:50am 3ft 8s 4s 18 20 mph 1009.9mb 51f 53f
12:50am 3ft 9s 5s 16 18 mph 1011.3mb 51f 54f
Sat 05/21 11:50pm 2.5ft 8s 5s 13 16 mph 1012.3mb 52f 54f
10:50pm 2.5ft 9s 6s 11
mph
1013.7mb 52f 54f
9:50pm 2.5ft 8s 5s 9
mph
1015mb 52f 54f
8:50pm 2.5ft 8s 5s 16 18 mph 1015.4mb 52f 55f
7:50pm 2.5ft 8s 7s 13 16 mph 1016.1mb 51f 55f
6:50pm 2.5ft 8s 7s 9
mph
1016.8mb 52f 55f
5:50pm 2.5ft 8s 7s 9
mph
1017.3mb 52f 55f
4:50pm 2.5ft 8s 7s 9
mph
1018mb 52f 54f
3:50pm 2.5ft 8s 7s 9
mph
1018.6mb 52f 54f
2:50pm 2.5ft 8s 7s 4 7 mph 1019.5mb 53f 54f
1:50pm 2.5ft 8s 7s 4 7 mph 1020.6mb 53f 54f
12:50pm 2.5ft 8s 7s 7 9 mph 1021.6mb 53f 54f
11:50am 2.5ft 8s 7s 4
mph
1021.8mb 53f 54f
10:50am 2.5ft 8s 7s 4 7 mph 1022.2mb 53f 55f
9:50am 2.5ft 8s 7s 7
mph
1022.7mb 53f 54f
8:50am 2.5ft 8s 7s 2
mph
1022.7mb 51f 53f
7:50am 2.5ft 7s 7s  -  2 mph 1023mb 51f 53f
6:50am 2.5ft 8s 7s 4
mph
1022.9mb 50f 52f
5:50am 2.5ft 8s 7s 4
mph
1022.4mb 49f 51f
4:50am 3ft 8s 7s 7
mph
1022.7mb 50f 51f
3:50am 3ft 8s 7s 4
mph
1022.9mb 50f 51f
2:50am 2.5ft 8s 7s 4 7 mph 1023mb 51f 51f
1:50am 2.5ft 8s 7s 7
mph
1023.4mb 51f 51f
12:50am 3ft 8s 7s 4
mph
1023.7mb 51f 52f
Fri 05/20 11:50pm 2.5ft 8s 7s 7 9 mph 1023.6mb 51f 52f
10:50pm 2.5ft 8s 7s 4
mph
1023.8mb 51f 52f
9:50pm 2.5ft 8s 7s 4 7 mph 1023.7mb 51f 52f